sensor_id;sensor_type;location;lat;lon;timestamp;temperature;humidity
41756;DHT22;27435;48.480;9.258;2022-09-03T00:02:18;18.20;76.30
41756;DHT22;27435;48.480;9.258;2022-09-03T00:08:04;18.20;76.70
41756;DHT22;27435;48.480;9.258;2022-09-03T00:10:50;18.30;76.70
41756;DHT22;27435;48.480;9.258;2022-09-03T00:13:39;18.30;76.80
41756;DHT22;27435;48.480;9.258;2022-09-03T00:16:10;18.20;77.50
41756;DHT22;27435;48.480;9.258;2022-09-03T00:18:45;18.20;77.20
41756;DHT22;27435;48.480;9.258;2022-09-03T00:21:46;18.20;77.50
41756;DHT22;27435;48.480;9.258;2022-09-03T00:24:17;18.10;77.50
41756;DHT22;27435;48.480;9.258;2022-09-03T00:26:50;18.10;77.50
41756;DHT22;27435;48.480;9.258;2022-09-03T00:29:22;18.10;77.70
41756;DHT22;27435;48.480;9.258;2022-09-03T00:31:55;18.20;77.60
41756;DHT22;27435;48.480;9.258;2022-09-03T00:34:39;18.30;77.70
41756;DHT22;27435;48.480;9.258;2022-09-03T00:37:09;18.30;77.70
41756;DHT22;27435;48.480;9.258;2022-09-03T00:39:36;18.20;78.20
41756;DHT22;27435;48.480;9.258;2022-09-03T00:56:03;18.10;79.30
41756;DHT22;27435;48.480;9.258;2022-09-03T00:58:44;18.00;79.70
41756;DHT22;27435;48.480;9.258;2022-09-03T01:01:30;18.00;80.00
41756;DHT22;27435;48.480;9.258;2022-09-03T01:07:03;18.00;80.60
41756;DHT22;27435;48.480;9.258;2022-09-03T01:09:52;17.90;80.70
41756;DHT22;27435;48.480;9.258;2022-09-03T01:20:26;18.10;80.60
41756;DHT22;27435;48.480;9.258;2022-09-03T01:31:31;17.90;81.50
41756;DHT22;27435;48.480;9.258;2022-09-03T01:33:46;17.90;81.40
41756;DHT22;27435;48.480;9.258;2022-09-03T01:36:25;18.00;81.30
41756;DHT22;27435;48.480;9.258;2022-09-03T01:39:02;17.90;81.50
41756;DHT22;27435;48.480;9.258;2022-09-03T01:42:09;17.90;81.90
41756;DHT22;27435;48.480;9.258;2022-09-03T01:44:56;17.90;82.30
41756;DHT22;27435;48.480;9.258;2022-09-03T01:47:52;17.80;82.90
41756;DHT22;27435;48.480;9.258;2022-09-03T01:50:41;17.60;83.00
41756;DHT22;27435;48.480;9.258;2022-09-03T01:53:40;17.60;82.90
41756;DHT22;27435;48.480;9.258;2022-09-03T01:58:55;17.70;83.10
41756;DHT22;27435;48.480;9.258;2022-09-03T02:02:23;17.70;83.50
41756;DHT22;27435;48.480;9.258;2022-09-03T02:04:24;17.70;83.30
41756;DHT22;27435;48.480;9.258;2022-09-03T02:06:51;17.60;83.30
41756;DHT22;27435;48.480;9.258;2022-09-03T02:09:18;17.60;83.90
41756;DHT22;27435;48.480;9.258;2022-09-03T02:11:49;17.60;83.80
41756;DHT22;27435;48.480;9.258;2022-09-03T02:14:15;17.60;84.20
41756;DHT22;27435;48.480;9.258;2022-09-03T02:16:41;17.70;83.90
41756;DHT22;27435;48.480;9.258;2022-09-03T02:19:11;17.80;83.50
41756;DHT22;27435;48.480;9.258;2022-09-03T02:21:42;17.80;83.20
41756;DHT22;27435;48.480;9.258;2022-09-03T02:24:10;17.70;83.30
41756;DHT22;27435;48.480;9.258;2022-09-03T02:26:36;17.70;83.60
41756;DHT22;27435;48.480;9.258;2022-09-03T02:29:02;17.60;83.90
41756;DHT22;27435;48.480;9.258;2022-09-03T02:31:28;17.50;84.40
41756;DHT22;27435;48.480;9.258;2022-09-03T02:33:56;17.40;84.80
41756;DHT22;27435;48.480;9.258;2022-09-03T02:36:35;17.30;85.20
41756;DHT22;27435;48.480;9.258;2022-09-03T02:39:02;17.20;85.80
41756;DHT22;27435;48.480;9.258;2022-09-03T02:41:28;17.00;86.30
41756;DHT22;27435;48.480;9.258;2022-09-03T02:46:58;16.90;87.20
41756;DHT22;27435;48.480;9.258;2022-09-03T02:49:24;16.80;87.70
41756;DHT22;27435;48.480;9.258;2022-09-03T02:51:49;16.80;87.70
41756;DHT22;27435;48.480;9.258;2022-09-03T02:54:15;16.70;88.00
41756;DHT22;27435;48.480;9.258;2022-09-03T02:56:41;16.70;88.20
41756;DHT22;27435;48.480;9.258;2022-09-03T02:59:08;16.60;88.00
41756;DHT22;27435;48.480;9.258;2022-09-03T03:01:34;16.60;88.60
41756;DHT22;27435;48.480;9.258;2022-09-03T03:04:01;16.50;88.90
41756;DHT22;27435;48.480;9.258;2022-09-03T03:06:27;16.60;88.60
41756;DHT22;27435;48.480;9.258;2022-09-03T03:08:53;16.50;89.20
41756;DHT22;27435;48.480;9.258;2022-09-03T03:11:20;16.50;89.40
41756;DHT22;27435;48.480;9.258;2022-09-03T03:13:46;16.60;89.90
41756;DHT22;27435;48.480;9.258;2022-09-03T03:16:14;16.60;89.90
41756;DHT22;27435;48.480;9.258;2022-09-03T03:18:40;16.50;89.60
41756;DHT22;27435;48.480;9.258;2022-09-03T03:21:10;16.50;89.30
41756;DHT22;27435;48.480;9.258;2022-09-03T03:23:37;16.60;89.40
41756;DHT22;27435;48.480;9.258;2022-09-03T03:26:13;16.60;89.40
41756;DHT22;27435;48.480;9.258;2022-09-03T03:28:39;16.70;89.10
41756;DHT22;27435;48.480;9.258;2022-09-03T03:31:08;16.70;89.20
41756;DHT22;27435;48.480;9.258;2022-09-03T03:33:34;16.80;88.90
41756;DHT22;27435;48.480;9.258;2022-09-03T03:36:11;16.80;88.90
41756;DHT22;27435;48.480;9.258;2022-09-03T03:38:38;16.90;88.80
41756;DHT22;27435;48.480;9.258;2022-09-03T03:41:11;16.90;88.80
41756;DHT22;27435;48.480;9.258;2022-09-03T03:43:37;17.00;88.60
41756;DHT22;27435;48.480;9.258;2022-09-03T03:46:03;17.20;88.00
41756;DHT22;27435;48.480;9.258;2022-09-03T03:48:30;17.20;88.00
41756;DHT22;27435;48.480;9.258;2022-09-03T03:51:00;17.30;87.30
41756;DHT22;27435;48.480;9.258;2022-09-03T03:53:29;17.40;87.30
41756;DHT22;27435;48.480;9.258;2022-09-03T03:55:56;17.30;87.30
41756;DHT22;27435;48.480;9.258;2022-09-03T03:58:22;17.30;87.40
41756;DHT22;27435;48.480;9.258;2022-09-03T04:00:49;17.40;87.30
41756;DHT22;27435;48.480;9.258;2022-09-03T04:03:15;17.30;87.30
41756;DHT22;27435;48.480;9.258;2022-09-03T04:05:40;17.40;87.40
41756;DHT22;27435;48.480;9.258;2022-09-03T04:08:06;17.50;87.50
41756;DHT22;27435;48.480;9.258;2022-09-03T04:10:32;17.50;87.40
41756;DHT22;27435;48.480;9.258;2022-09-03T04:12:57;17.60;87.90
41756;DHT22;27435;48.480;9.258;2022-09-03T04:15:23;17.60;87.40
41756;DHT22;27435;48.480;9.258;2022-09-03T04:17:49;17.60;87.40
41756;DHT22;27435;48.480;9.258;2022-09-03T04:20:14;17.60;87.30
41756;DHT22;27435;48.480;9.258;2022-09-03T04:22:40;17.60;87.40
41756;DHT22;27435;48.480;9.258;2022-09-03T04:25:06;17.60;87.50
41756;DHT22;27435;48.480;9.258;2022-09-03T04:27:32;17.60;88.30
41756;DHT22;27435;48.480;9.258;2022-09-03T04:29:57;17.60;88.40
41756;DHT22;27435;48.480;9.258;2022-09-03T04:32:23;17.60;89.20
41756;DHT22;27435;48.480;9.258;2022-09-03T04:35:07;17.60;89.30
41756;DHT22;27435;48.480;9.258;2022-09-03T04:37:33;17.60;89.60
41756;DHT22;27435;48.480;9.258;2022-09-03T04:39:58;17.70;89.50
41756;DHT22;27435;48.480;9.258;2022-09-03T04:42:24;17.80;89.50
41756;DHT22;27435;48.480;9.258;2022-09-03T04:44:49;17.80;89.70
41756;DHT22;27435;48.480;9.258;2022-09-03T04:47:15;17.80;89.80
41756;DHT22;27435;48.480;9.258;2022-09-03T04:49:41;17.80;90.10
41756;DHT22;27435;48.480;9.258;2022-09-03T04:52:06;17.80;89.80
41756;DHT22;27435;48.480;9.258;2022-09-03T04:54:32;17.80;89.90
41756;DHT22;27435;48.480;9.258;2022-09-03T04:56:58;17.70;90.20
41756;DHT22;27435;48.480;9.258;2022-09-03T04:59:23;17.60;90.50
41756;DHT22;27435;48.480;9.258;2022-09-03T05:01:49;17.70;90.00
41756;DHT22;27435;48.480;9.258;2022-09-03T05:04:17;17.70;90.20
41756;DHT22;27435;48.480;9.258;2022-09-03T05:06:42;17.60;90.70
41756;DHT22;27435;48.480;9.258;2022-09-03T05:09:09;17.50;91.50
41756;DHT22;27435;48.480;9.258;2022-09-03T05:11:35;17.50;91.50
41756;DHT22;27435;48.480;9.258;2022-09-03T05:14:01;17.50;92.00
41756;DHT22;27435;48.480;9.258;2022-09-03T05:16:28;17.40;92.70
41756;DHT22;27435;48.480;9.258;2022-09-03T05:18:56;17.50;92.70
41756;DHT22;27435;48.480;9.258;2022-09-03T05:21:24;17.40;93.10
41756;DHT22;27435;48.480;9.258;2022-09-03T05:23:51;17.40;93.40
41756;DHT22;27435;48.480;9.258;2022-09-03T05:26:23;17.50;93.20
41756;DHT22;27435;48.480;9.258;2022-09-03T05:28:53;17.40;93.80
41756;DHT22;27435;48.480;9.258;2022-09-03T05:31:20;17.60;93.40
41756;DHT22;27435;48.480;9.258;2022-09-03T05:33:48;17.60;93.60
41756;DHT22;27435;48.480;9.258;2022-09-03T05:36:16;17.60;93.60
41756;DHT22;27435;48.480;9.258;2022-09-03T05:38:42;17.60;93.50
41756;DHT22;27435;48.480;9.258;2022-09-03T05:41:10;17.70;92.80
41756;DHT22;27435;48.480;9.258;2022-09-03T05:43:36;17.60;93.40
41756;DHT22;27435;48.480;9.258;2022-09-03T05:46:05;17.60;93.30
41756;DHT22;27435;48.480;9.258;2022-09-03T05:48:33;17.70;93.10
41756;DHT22;27435;48.480;9.258;2022-09-03T05:51:07;17.70;92.40
41756;DHT22;27435;48.480;9.258;2022-09-03T05:53:35;17.80;92.40
41756;DHT22;27435;48.480;9.258;2022-09-03T05:56:06;17.80;92.50
41756;DHT22;27435;48.480;9.258;2022-09-03T05:58:40;17.80;92.60
41756;DHT22;27435;48.480;9.258;2022-09-03T06:03:42;17.90;91.80
41756;DHT22;27435;48.480;9.258;2022-09-03T06:06:08;18.00;91.90
41756;DHT22;27435;48.480;9.258;2022-09-03T06:08:35;18.00;91.90
41756;DHT22;27435;48.480;9.258;2022-09-03T06:11:03;18.00;91.60
41756;DHT22;27435;48.480;9.258;2022-09-03T06:13:31;18.10;91.50
41756;DHT22;27435;48.480;9.258;2022-09-03T06:16:02;18.10;91.30
41756;DHT22;27435;48.480;9.258;2022-09-03T06:18:29;18.10;91.70
41756;DHT22;27435;48.480;9.258;2022-09-03T06:21:00;18.30;91.30
41756;DHT22;27435;48.480;9.258;2022-09-03T06:23:27;18.40;90.90
41756;DHT22;27435;48.480;9.258;2022-09-03T06:26:22;18.40;90.40
41756;DHT22;27435;48.480;9.258;2022-09-03T06:28:48;18.60;90.20
41756;DHT22;27435;48.480;9.258;2022-09-03T06:31:16;18.80;89.40
41756;DHT22;27435;48.480;9.258;2022-09-03T06:33:43;18.90;89.40
41756;DHT22;27435;48.480;9.258;2022-09-03T06:36:11;18.90;89.30
41756;DHT22;27435;48.480;9.258;2022-09-03T06:38:38;19.10;88.40
41756;DHT22;27435;48.480;9.258;2022-09-03T06:41:07;19.10;88.40
41756;DHT22;27435;48.480;9.258;2022-09-03T06:43:41;19.20;87.80
41756;DHT22;27435;48.480;9.258;2022-09-03T06:46:10;19.40;87.40
41756;DHT22;27435;48.480;9.258;2022-09-03T06:48:37;19.50;87.00
41756;DHT22;27435;48.480;9.258;2022-09-03T06:51:05;19.60;87.30
41756;DHT22;27435;48.480;9.258;2022-09-03T06:53:40;19.60;87.10
41756;DHT22;27435;48.480;9.258;2022-09-03T06:56:12;19.70;87.30
41756;DHT22;27435;48.480;9.258;2022-09-03T06:58:41;19.90;87.30
41756;DHT22;27435;48.480;9.258;2022-09-03T07:01:34;20.00;86.70
41756;DHT22;27435;48.480;9.258;2022-09-03T07:04:04;20.00;85.50
41756;DHT22;27435;48.480;9.258;2022-09-03T07:06:36;19.90;86.70
41756;DHT22;27435;48.480;9.258;2022-09-03T07:09:03;19.80;87.20
41756;DHT22;27435;48.480;9.258;2022-09-03T07:11:30;19.90;87.20
41756;DHT22;27435;48.480;9.258;2022-09-03T07:13:58;19.90;86.60
41756;DHT22;27435;48.480;9.258;2022-09-03T07:16:25;20.10;86.60
41756;DHT22;27435;48.480;9.258;2022-09-03T07:18:53;20.10;86.50
41756;DHT22;27435;48.480;9.258;2022-09-03T07:21:24;20.00;87.10
41756;DHT22;27435;48.480;9.258;2022-09-03T07:23:51;19.90;87.10
41756;DHT22;27435;48.480;9.258;2022-09-03T07:26:28;19.90;87.90
41756;DHT22;27435;48.480;9.258;2022-09-03T07:28:55;20.10;87.30
41756;DHT22;27435;48.480;9.258;2022-09-03T07:31:22;20.10;87.20
41756;DHT22;27435;48.480;9.258;2022-09-03T07:33:54;20.10;86.90
41756;DHT22;27435;48.480;9.258;2022-09-03T07:36:21;20.30;86.80
41756;DHT22;27435;48.480;9.258;2022-09-03T07:38:47;20.40;86.90
41756;DHT22;27435;48.480;9.258;2022-09-03T07:41:13;20.30;86.30
41756;DHT22;27435;48.480;9.258;2022-09-03T07:43:44;20.30;86.60
41756;DHT22;27435;48.480;9.258;2022-09-03T07:46:18;20.30;86.80
41756;DHT22;27435;48.480;9.258;2022-09-03T07:48:49;20.30;86.90
41756;DHT22;27435;48.480;9.258;2022-09-03T07:51:16;20.30;86.60
41756;DHT22;27435;48.480;9.258;2022-09-03T07:53:46;20.40;86.80
41756;DHT22;27435;48.480;9.258;2022-09-03T07:56:12;20.40;86.80
41756;DHT22;27435;48.480;9.258;2022-09-03T07:58:40;20.40;87.10
41756;DHT22;27435;48.480;9.258;2022-09-03T08:01:11;20.50;86.60
41756;DHT22;27435;48.480;9.258;2022-09-03T08:03:38;20.60;85.70
41756;DHT22;27435;48.480;9.258;2022-09-03T08:06:07;20.80;85.30
41756;DHT22;27435;48.480;9.258;2022-09-03T08:08:34;20.80;85.20
41756;DHT22;27435;48.480;9.258;2022-09-03T08:11:11;20.80;85.90
41756;DHT22;27435;48.480;9.258;2022-09-03T08:13:38;21.00;85.60
41756;DHT22;27435;48.480;9.258;2022-09-03T08:16:05;21.10;84.90
41756;DHT22;27435;48.480;9.258;2022-09-03T08:18:33;21.20;84.70
41756;DHT22;27435;48.480;9.258;2022-09-03T08:21:05;21.20;83.80
41756;DHT22;27435;48.480;9.258;2022-09-03T08:23:35;21.00;84.90
41756;DHT22;27435;48.480;9.258;2022-09-03T08:26:05;20.70;85.20
41756;DHT22;27435;48.480;9.258;2022-09-03T08:28:31;20.80;85.30
41756;DHT22;27435;48.480;9.258;2022-09-03T08:31:11;20.90;84.90
41756;DHT22;27435;48.480;9.258;2022-09-03T08:33:45;21.10;83.50
41756;DHT22;27435;48.480;9.258;2022-09-03T08:36:16;21.00;82.60
41756;DHT22;27435;48.480;9.258;2022-09-03T08:38:44;21.10;82.70
41756;DHT22;27435;48.480;9.258;2022-09-03T08:41:17;21.10;83.10
41756;DHT22;27435;48.480;9.258;2022-09-03T08:47:09;21.60;80.80
41756;DHT22;27435;48.480;9.258;2022-09-03T08:49:56;22.10;78.60
41756;DHT22;27435;48.480;9.258;2022-09-03T08:55:28;22.70;76.40
41756;DHT22;27435;48.480;9.258;2022-09-03T08:58:17;22.70;74.60
41756;DHT22;27435;48.480;9.258;2022-09-03T09:09:32;23.10;73.00
41756;DHT22;27435;48.480;9.258;2022-09-03T09:15:27;22.70;74.10
41756;DHT22;27435;48.480;9.258;2022-09-03T09:18:09;22.80;74.20
41756;DHT22;27435;48.480;9.258;2022-09-03T09:21:01;22.80;74.00
41756;DHT22;27435;48.480;9.258;2022-09-03T09:23:37;22.50;74.50
41756;DHT22;27435;48.480;9.258;2022-09-03T09:26:09;22.30;75.00
41756;DHT22;27435;48.480;9.258;2022-09-03T09:28:37;22.40;75.80
41756;DHT22;27435;48.480;9.258;2022-09-03T09:31:05;22.80;75.40
41756;DHT22;27435;48.480;9.258;2022-09-03T09:33:33;23.50;74.20
41756;DHT22;27435;48.480;9.258;2022-09-03T09:36:04;23.40;72.90
41756;DHT22;27435;48.480;9.258;2022-09-03T09:38:35;23.50;73.00
41756;DHT22;27435;48.480;9.258;2022-09-03T09:41:11;23.20;74.50
41756;DHT22;27435;48.480;9.258;2022-09-03T09:43:38;23.20;74.30
41756;DHT22;27435;48.480;9.258;2022-09-03T09:46:11;23.50;73.30
41756;DHT22;27435;48.480;9.258;2022-09-03T09:48:52;23.50;73.50
41756;DHT22;27435;48.480;9.258;2022-09-03T09:53:58;23.40;72.80
41756;DHT22;27435;48.480;9.258;2022-09-03T09:56:25;22.90;74.80
41756;DHT22;27435;48.480;9.258;2022-09-03T09:59:08;23.30;73.40
41756;DHT22;27435;48.480;9.258;2022-09-03T10:01:39;23.90;70.90
41756;DHT22;27435;48.480;9.258;2022-09-03T10:04:23;24.40;70.70
41756;DHT22;27435;48.480;9.258;2022-09-03T10:07:02;24.50;69.60
41756;DHT22;27435;48.480;9.258;2022-09-03T10:09:31;24.60;69.60
41756;DHT22;27435;48.480;9.258;2022-09-03T10:12:21;24.20;69.90
41756;DHT22;27435;48.480;9.258;2022-09-03T10:20:11;24.60;70.10
41756;DHT22;27435;48.480;9.258;2022-09-03T10:23:10;24.60;69.10
41756;DHT22;27435;48.480;9.258;2022-09-03T10:28:19;24.00;72.80
41756;DHT22;27435;48.480;9.258;2022-09-03T10:33:57;24.10;72.40
41756;DHT22;27435;48.480;9.258;2022-09-03T10:39:22;23.50;73.30
41756;DHT22;27435;48.480;9.258;2022-09-03T10:47:24;23.30;73.80
41756;DHT22;27435;48.480;9.258;2022-09-03T10:50:27;23.10;74.90
41756;DHT22;27435;48.480;9.258;2022-09-03T10:52:58;23.30;74.20
41756;DHT22;27435;48.480;9.258;2022-09-03T10:55:49;23.70;72.70
41756;DHT22;27435;48.480;9.258;2022-09-03T11:07:04;24.00;71.30
41756;DHT22;27435;48.480;9.258;2022-09-03T11:09:48;24.00;72.30
41756;DHT22;27435;48.480;9.258;2022-09-03T11:12:28;23.80;72.90
41756;DHT22;27435;48.480;9.258;2022-09-03T11:15:03;23.80;72.60
41756;DHT22;27435;48.480;9.258;2022-09-03T11:17:38;24.00;72.10
41756;DHT22;27435;48.480;9.258;2022-09-03T11:20:10;24.20;72.00
41756;DHT22;27435;48.480;9.258;2022-09-03T11:22:40;23.80;72.30
41756;DHT22;27435;48.480;9.258;2022-09-03T11:25:08;23.40;73.60
41756;DHT22;27435;48.480;9.258;2022-09-03T11:30:13;22.60;75.70
41756;DHT22;27435;48.480;9.258;2022-09-03T11:32:50;22.50;76.80
41756;DHT22;27435;48.480;9.258;2022-09-03T11:38:18;21.60;82.80
41756;DHT22;27435;48.480;9.258;2022-09-03T11:41:12;21.30;84.90
41756;DHT22;27435;48.480;9.258;2022-09-03T11:43:42;21.10;87.20
41756;DHT22;27435;48.480;9.258;2022-09-03T11:48:41;20.90;92.60
41756;DHT22;27435;48.480;9.258;2022-09-03T11:51:20;19.90;86.90
41756;DHT22;27435;48.480;9.258;2022-09-03T11:54:02;18.80;91.60
41756;DHT22;27435;48.480;9.258;2022-09-03T11:56:30;18.40;96.00
41756;DHT22;27435;48.480;9.258;2022-09-03T12:01:55;17.00;99.00
41756;DHT22;27435;48.480;9.258;2022-09-03T12:04:28;16.70;99.00
41756;DHT22;27435;48.480;9.258;2022-09-03T12:07:12;16.60;99.00
41756;DHT22;27435;48.480;9.258;2022-09-03T12:18:11;16.30;99.00
41756;DHT22;27435;48.480;9.258;2022-09-03T12:20:45;16.50;99.00
41756;DHT22;27435;48.480;9.258;2022-09-03T12:23:32;16.50;99.00
41756;DHT22;27435;48.480;9.258;2022-09-03T12:26:15;16.50;99.00
41756;DHT22;27435;48.480;9.258;2022-09-03T12:28:49;16.50;99.00
41756;DHT22;27435;48.480;9.258;2022-09-03T12:36:16;16.50;99.00
41756;DHT22;27435;48.480;9.258;2022-09-03T12:38:42;16.70;99.00
41756;DHT22;27435;48.480;9.258;2022-09-03T12:41:29;17.20;99.00
41756;DHT22;27435;48.480;9.258;2022-09-03T12:43:57;17.90;99.00
41756;DHT22;27435;48.480;9.258;2022-09-03T12:46:28;18.30;99.00
41756;DHT22;27435;48.480;9.258;2022-09-03T12:48:59;18.70;99.00
41756;DHT22;27435;48.480;9.258;2022-09-03T12:51:38;19.40;99.00
41756;DHT22;27435;48.480;9.258;2022-09-03T12:54:10;19.40;99.00
41756;DHT22;27435;48.480;9.258;2022-09-03T12:56:47;19.40;99.00
41756;DHT22;27435;48.480;9.258;2022-09-03T12:59:17;19.30;99.00
41756;DHT22;27435;48.480;9.258;2022-09-03T13:01:50;19.50;99.00
41756;DHT22;27435;48.480;9.258;2022-09-03T13:04:24;20.10;99.00
41756;DHT22;27435;48.480;9.258;2022-09-03T13:07:01;20.40;96.30
41756;DHT22;27435;48.480;9.258;2022-09-03T13:09:29;20.50;96.70
41756;DHT22;27435;48.480;9.258;2022-09-03T13:11:57;20.40;98.50
41756;DHT22;27435;48.480;9.258;2022-09-03T13:14:25;20.30;95.60
41756;DHT22;27435;48.480;9.258;2022-09-03T13:20:08;20.60;93.90
41756;DHT22;27435;48.480;9.258;2022-09-03T13:30:48;20.80;93.30
41756;DHT22;27435;48.480;9.258;2022-09-03T13:33:23;20.80;94.50
41756;DHT22;27435;48.480;9.258;2022-09-03T13:36:15;20.60;93.00
41756;DHT22;27435;48.480;9.258;2022-09-03T13:38:43;20.60;95.10
41756;DHT22;27435;48.480;9.258;2022-09-03T13:41:15;21.00;92.70
41756;DHT22;27435;48.480;9.258;2022-09-03T13:44:05;21.30;92.70
41756;DHT22;27435;48.480;9.258;2022-09-03T13:49:20;22.20;88.00
41756;DHT22;27435;48.480;9.258;2022-09-03T13:52:13;22.50;86.10
41756;DHT22;27435;48.480;9.258;2022-09-03T13:54:45;22.60;84.90
41756;DHT22;27435;48.480;9.258;2022-09-03T13:57:25;22.40;87.00
41756;DHT22;27435;48.480;9.258;2022-09-03T14:00:04;22.40;86.80
41756;DHT22;27435;48.480;9.258;2022-09-03T14:11:27;24.50;75.60
41756;DHT22;27435;48.480;9.258;2022-09-03T14:19:32;25.90;72.50
41756;DHT22;27435;48.480;9.258;2022-09-03T14:22:17;26.00;72.20
41756;DHT22;27435;48.480;9.258;2022-09-03T14:25:03;25.60;74.40
41756;DHT22;27435;48.480;9.258;2022-09-03T14:27:33;26.10;73.50
41756;DHT22;27435;48.480;9.258;2022-09-03T14:32:50;26.70;69.80
41756;DHT22;27435;48.480;9.258;2022-09-03T14:35:52;26.20;72.60
41756;DHT22;27435;48.480;9.258;2022-09-03T14:47:01;26.10;68.10
41756;DHT22;27435;48.480;9.258;2022-09-03T14:57:51;27.60;63.80
41756;DHT22;27435;48.480;9.258;2022-09-03T15:00:22;28.00;62.60
41756;DHT22;27435;48.480;9.258;2022-09-03T15:03:18;26.90;64.80
41756;DHT22;27435;48.480;9.258;2022-09-03T15:05:52;26.60;66.70
41756;DHT22;27435;48.480;9.258;2022-09-03T15:11:20;27.00;66.30
41756;DHT22;27435;48.480;9.258;2022-09-03T15:14:00;26.60;67.50
41756;DHT22;27435;48.480;9.258;2022-09-03T15:19:48;25.80;68.60
41756;DHT22;27435;48.480;9.258;2022-09-03T15:22:47;25.40;71.40
41756;DHT22;27435;48.480;9.258;2022-09-03T15:31:14;26.40;70.30
41756;DHT22;27435;48.480;9.258;2022-09-03T15:36:42;27.30;65.60
41756;DHT22;27435;48.480;9.258;2022-09-03T15:39:14;27.40;65.00
41756;DHT22;27435;48.480;9.258;2022-09-03T15:44:41;26.10;67.80
41756;DHT22;27435;48.480;9.258;2022-09-03T15:47:33;25.30;68.40
41756;DHT22;27435;48.480;9.258;2022-09-03T15:50:23;26.40;66.40
41756;DHT22;27435;48.480;9.258;2022-09-03T15:53:18;27.40;64.20
41756;DHT22;27435;48.480;9.258;2022-09-03T15:56:03;27.00;64.20
41756;DHT22;27435;48.480;9.258;2022-09-03T15:58:36;25.90;67.40
41756;DHT22;27435;48.480;9.258;2022-09-03T16:01:35;25.20;69.40
41756;DHT22;27435;48.480;9.258;2022-09-03T16:07:08;26.80;67.30
41756;DHT22;27435;48.480;9.258;2022-09-03T16:09:48;28.70;62.40
41756;DHT22;27435;48.480;9.258;2022-09-03T16:15:11;28.20;62.20
41756;DHT22;27435;48.480;9.258;2022-09-03T16:18:06;28.10;62.10
41756;DHT22;27435;48.480;9.258;2022-09-03T16:20:53;27.90;62.00
41756;DHT22;27435;48.480;9.258;2022-09-03T16:23:38;27.50;63.70
41756;DHT22;27435;48.480;9.258;2022-09-03T16:29:25;28.70;62.00
41756;DHT22;27435;48.480;9.258;2022-09-03T16:34:39;27.10;68.80
41756;DHT22;27435;48.480;9.258;2022-09-03T16:45:08;23.80;81.40
41756;DHT22;27435;48.480;9.258;2022-09-03T16:53:06;22.30;87.50
41756;DHT22;27435;48.480;9.258;2022-09-03T16:55:55;21.90;90.10
41756;DHT22;27435;48.480;9.258;2022-09-03T17:09:46;21.20;96.10
41756;DHT22;27435;48.480;9.258;2022-09-03T17:14:57;21.10;96.80
41756;DHT22;27435;48.480;9.258;2022-09-03T17:17:44;21.00;97.50
41756;DHT22;27435;48.480;9.258;2022-09-03T17:23:47;20.60;99.00
41756;DHT22;27435;48.480;9.258;2022-09-03T17:26:25;20.50;99.00
41756;DHT22;27435;48.480;9.258;2022-09-03T17:34:50;19.90;99.00
41756;DHT22;27435;48.480;9.258;2022-09-03T17:40:29;19.20;99.00
41756;DHT22;27435;48.480;9.258;2022-09-03T17:46:44;19.00;99.00
41756;DHT22;27435;48.480;9.258;2022-09-03T17:49:52;18.60;99.00
41756;DHT22;27435;48.480;9.258;2022-09-03T17:52:39;18.50;99.00
41756;DHT22;27435;48.480;9.258;2022-09-03T17:55:38;18.40;99.00
41756;DHT22;27435;48.480;9.258;2022-09-03T17:58:27;18.40;99.00
41756;DHT22;27435;48.480;9.258;2022-09-03T18:01:22;18.20;99.00
41756;DHT22;27435;48.480;9.258;2022-09-03T18:04:12;17.90;99.00
41756;DHT22;27435;48.480;9.258;2022-09-03T18:10:09;17.50;99.00
41756;DHT22;27435;48.480;9.258;2022-09-03T18:15:28;17.20;99.00
41756;DHT22;27435;48.480;9.258;2022-09-03T18:18:19;17.20;99.00
41756;DHT22;27435;48.480;9.258;2022-09-03T18:20:50;17.20;99.00
41756;DHT22;27435;48.480;9.258;2022-09-03T18:27:03;17.20;99.00
41756;DHT22;27435;48.480;9.258;2022-09-03T18:30:01;17.00;99.00
41756;DHT22;27435;48.480;9.258;2022-09-03T18:32:46;16.90;99.00
41756;DHT22;27435;48.480;9.258;2022-09-03T18:35:34;17.00;99.00
41756;DHT22;27435;48.480;9.258;2022-09-03T18:38:28;16.90;99.00
41756;DHT22;27435;48.480;9.258;2022-09-03T18:41:38;16.90;99.00
41756;DHT22;27435;48.480;9.258;2022-09-03T18:53:50;16.80;99.00
41756;DHT22;27435;48.480;9.258;2022-09-03T19:08:51;16.10;99.00
41756;DHT22;27435;48.480;9.258;2022-09-03T19:12:11;16.00;99.00
41756;DHT22;27435;48.480;9.258;2022-09-03T19:15:11;16.10;99.00
41756;DHT22;27435;48.480;9.258;2022-09-03T19:18:29;16.10;99.00
41756;DHT22;27435;48.480;9.258;2022-09-03T19:21:43;16.00;99.00
41756;DHT22;27435;48.480;9.258;2022-09-03T19:24:31;16.00;99.00
41756;DHT22;27435;48.480;9.258;2022-09-03T19:30:33;16.00;99.00
41756;DHT22;27435;48.480;9.258;2022-09-03T19:36:50;16.10;99.00
41756;DHT22;27435;48.480;9.258;2022-09-03T19:40:08;16.10;99.00
41756;DHT22;27435;48.480;9.258;2022-09-03T19:53:04;15.80;99.00
41756;DHT22;27435;48.480;9.258;2022-09-03T19:55:58;15.80;99.00
41756;DHT22;27435;48.480;9.258;2022-09-03T19:59:06;15.90;99.00
41756;DHT22;27435;48.480;9.258;2022-09-03T20:02:00;15.90;99.00
41756;DHT22;27435;48.480;9.258;2022-09-03T20:05:06;15.90;99.00
41756;DHT22;27435;48.480;9.258;2022-09-03T20:08:09;15.90;99.00
41756;DHT22;27435;48.480;9.258;2022-09-03T20:11:11;16.00;99.00
41756;DHT22;27435;48.480;9.258;2022-09-03T20:13:55;16.00;99.00
41756;DHT22;27435;48.480;9.258;2022-09-03T20:17:11;15.90;99.00
41756;DHT22;27435;48.480;9.258;2022-09-03T20:20:00;15.80;99.00
41756;DHT22;27435;48.480;9.258;2022-09-03T20:22:49;15.70;99.00
41756;DHT22;27435;48.480;9.258;2022-09-03T20:30:47;15.50;99.00
41756;DHT22;27435;48.480;9.258;2022-09-03T20:36:37;15.40;99.00
41756;DHT22;27435;48.480;9.258;2022-09-03T20:47:29;15.80;99.00
41756;DHT22;27435;48.480;9.258;2022-09-03T20:55:45;15.80;99.00
41756;DHT22;27435;48.480;9.258;2022-09-03T21:01:26;15.90;99.00
41756;DHT22;27435;48.480;9.258;2022-09-03T21:06:58;15.80;99.00
41756;DHT22;27435;48.480;9.258;2022-09-03T21:10:00;15.80;99.00
41756;DHT22;27435;48.480;9.258;2022-09-03T21:18:08;15.70;99.00
41756;DHT22;27435;48.480;9.258;2022-09-03T21:23:54;15.70;99.00
41756;DHT22;27435;48.480;9.258;2022-09-03T21:26:31;15.80;99.00
41756;DHT22;27435;48.480;9.258;2022-09-03T21:29:20;15.90;99.00
41756;DHT22;27435;48.480;9.258;2022-09-03T21:37:23;16.10;99.00
41756;DHT22;27435;48.480;9.258;2022-09-03T21:39:54;16.30;99.00
41756;DHT22;27435;48.480;9.258;2022-09-03T21:44:59;16.40;99.00
41756;DHT22;27435;48.480;9.258;2022-09-03T21:47:27;16.40;99.00
41756;DHT22;27435;48.480;9.258;2022-09-03T21:50:10;16.40;99.00
41756;DHT22;27435;48.480;9.258;2022-09-03T21:53:08;16.40;99.00
41756;DHT22;27435;48.480;9.258;2022-09-03T22:04:25;15.80;99.00